Time;durP1;ratioP1;P1;durP2;ratioP2;P2;SDS_P1;SDS_P2;PMS_P1;PMS_P2;Temp;Humidity;BMP_temperature;BMP_pressure;BME280_temperature;BME280_humidity;BME280_pressure;Samples;Min_cycle;Max_cycle;Signal;HPM_P1;HPM_P2
2023/10/29 00:00:18;;;;;;;8.48;1.33;;;27.60;42.30;;;;;;4956616;29;20015;-66
2023/10/29 00:02:45;;;;;;;6.18;0.90;;;27.50;44.80;;;;;;4950290;28;20110;-67
2023/10/29 00:05:13;;;;;;;5.28;1.63;;;27.60;46.10;;;;;;4955778;29;20024;-67
2023/10/29 00:07:40;;;;;;;1.90;1.05;;;28.00;44.00;;;;;;4961872;28;20045;-65
2023/10/29 00:10:08;;;;;;;4.38;1.33;;;27.80;43.70;;;;;;4975311;28;20101;-66
2023/10/29 00:12:35;;;;;;;3.65;1.50;;;27.80;42.90;;;;;;4974235;28;20019;-65
2023/10/29 00:15:05;;;;;;;3.67;1.25;;;27.90;42.70;;;;;;4975834;28;20027;-65
2023/10/29 00:17:32;;;;;;;2.72;0.82;;;27.80;40.90;;;;;;4974433;28;20029;-66
2023/10/29 00:20:00;;;;;;;2.58;0.73;;;27.80;40.50;;;;;;4974223;28;20050;-65
2023/10/29 00:22:28;;;;;;;2.95;1.23;;;27.80;40.90;;;;;;4956408;28;20027;-66
2023/10/29 00:24:55;;;;;;;3.03;1.33;;;28.10;40.20;;;;;;4963008;28;20065;-66
2023/10/29 00:27:31;;;;;;;3.08;1.05;;;28.20;40.50;;;;;;4973981;28;20019;-66
2023/10/29 00:29:58;;;;;;;4.15;1.10;;;28.20;39.60;;;;;;4974856;28;20071;-66
2023/10/29 00:32:26;;;;;;;3.15;1.00;;;28.20;39.10;;;;;;4974376;28;20023;-66
2023/10/29 00:34:53;;;;;;;6.00;0.90;;;28.50;39.10;;;;;;4974555;28;20023;-66
2023/10/29 00:37:20;;;;;;;2.13;0.68;;;28.80;38.60;;;;;;4974924;28;20019;-66
2023/10/29 00:39:47;;;;;;;2.38;1.00;;;28.40;38.00;;;;;;4974839;28;20026;-66
2023/10/29 00:42:15;;;;;;;2.15;1.05;;;28.50;37.60;;;;;;4963594;28;20027;-65
2023/10/29 00:44:42;;;;;;;2.63;0.50;;;28.30;38.20;;;;;;4955757;29;20019;-65
2023/10/29 00:47:10;;;;;;;3.53;0.70;;;28.70;36.20;;;;;;4955624;29;20035;-66
2023/10/29 00:49:37;;;;;;;3.60;0.70;;;28.50;36.10;;;;;;4955595;28;20027;-66
2023/10/29 00:52:05;;;;;;;3.45;0.65;;;28.40;33.80;;;;;;4955755;29;20031;-66
2023/10/29 00:54:33;;;;;;;2.42;0.70;;;28.40;35.00;;;;;;4955629;29;20019;-65
2023/10/29 00:57:00;;;;;;;3.70;0.68;;;28.40;35.40;;;;;;4955877;29;20027;-66
2023/10/29 00:59:30;;;;;;;2.28;0.60;;;28.90;35.70;;;;;;4955967;28;20141;-66
2023/10/29 01:01:58;;;;;;;5.50;0.75;;;29.40;36.20;;;;;;4955648;29;20019;-66
2023/10/29 01:04:25;;;;;;;3.50;0.63;;;29.80;35.40;;;;;;4955633;29;20028;-66
2023/10/29 01:06:52;;;;;;;2.05;0.57;;;29.90;33.90;;;;;;4937404;29;20027;-67
2023/10/29 01:09:20;;;;;;;7.43;1.00;;;29.60;32.90;;;;;;4935447;29;20024;-66
2023/10/29 01:11:47;;;;;;;3.15;0.50;;;29.60;32.10;;;;;;4935859;29;20027;-66
2023/10/29 01:14:14;;;;;;;4.63;1.05;;;29.90;33.10;;;;;;4936016;29;20052;-66
2023/10/29 01:16:42;;;;;;;1.75;0.57;;;30.40;32.90;;;;;;4966037;28;20029;-66
2023/10/29 01:19:09;;;;;;;2.55;0.52;;;30.90;32.70;;;;;;4974679;28;20317;-65
2023/10/29 01:21:37;;;;;;;3.13;0.50;;;30.80;31.40;;;;;;4974522;28;20019;-66
2023/10/29 01:24:05;;;;;;;3.13;0.75;;;30.80;31.50;;;;;;4974417;28;20033;-66
2023/10/29 01:26:33;;;;;;;5.85;0.63;;;31.00;30.60;;;;;;4974367;28;20027;-66
2023/10/29 01:29:00;;;;;;;2.25;0.60;;;31.30;32.50;;;;;;4972718;28;20399;-66
2023/10/29 01:31:28;;;;;;;1.95;0.63;;;31.70;31.70;;;;;;4974272;28;20050;-66
2023/10/29 01:33:56;;;;;;;2.58;0.60;;;32.20;32.20;;;;;;4973051;28;20050;-66
2023/10/29 01:36:23;;;;;;;1.58;0.70;;;32.20;30.40;;;;;;4974327;28;20400;-66
2023/10/29 01:38:50;;;;;;;2.10;0.60;;;32.20;30.80;;;;;;4974147;28;20317;-66
2023/10/29 01:41:17;;;;;;;2.28;0.50;;;31.90;31.10;;;;;;4973981;28;20058;-66
2023/10/29 01:43:45;;;;;;;1.60;0.50;;;32.20;31.10;;;;;;4973803;28;20027;-66
2023/10/29 01:46:12;;;;;;;5.50;0.68;;;32.40;31.50;;;;;;4974086;28;20131;-66
2023/10/29 01:48:39;;;;;;;1.45;0.50;;;32.80;31.60;;;;;;4974084;28;20033;-66
2023/10/29 01:51:07;;;;;;;2.08;0.60;;;32.90;31.40;;;;;;4955295;28;20070;-66
2023/10/29 01:53:35;;;;;;;3.15;0.63;;;33.10;30.50;;;;;;4954694;29;20061;-66
2023/10/29 01:56:07;;;;;;;2.25;0.80;;;33.30;30.70;;;;;;4954520;29;20042;-66
2023/10/29 01:58:35;;;;;;;2.63;0.50;;;33.50;30.60;;;;;;4954821;29;20037;-67
2023/10/29 02:01:08;;;;;;;2.42;0.60;;;33.50;31.40;;;;;;4954613;28;20444;-66
2023/10/29 02:03:35;;;;;;;1.83;0.63;;;33.70;31.40;;;;;;4946304;29;20132;-66
2023/10/29 02:06:03;;;;;;;3.15;0.70;;;34.10;31.20;;;;;;4938887;28;20023;-68
2023/10/29 02:08:30;;;;;;;2.88;0.57;;;34.10;30.00;;;;;;4973620;28;20034;-66
2023/10/29 02:10:57;;;;;;;2.22;0.55;;;33.70;30.00;;;;;;4973662;28;20018;-66
2023/10/29 02:13:25;;;;;;;4.40;0.40;;;33.50;29.90;;;;;;4973608;28;20023;-66
2023/10/29 02:15:52;;;;;;;1.95;0.45;;;33.00;29.80;;;;;;4973725;28;20109;-66
2023/10/29 02:18:19;;;;;;;3.92;0.50;;;33.00;31.40;;;;;;4973418;28;20360;-66
2023/10/29 02:20:47;;;;;;;4.20;0.60;;;33.40;30.70;;;;;;4973281;28;20031;-66
2023/10/29 02:23:14;;;;;;;2.05;0.60;;;33.60;29.50;;;;;;4972346;28;20019;-67
2023/10/29 02:25:41;;;;;;;1.42;0.57;;;32.90;28.60;;;;;;4973656;28;20029;-66
2023/10/29 02:28:09;;;;;;;5.38;0.60;;;31.90;28.50;;;;;;4973497;28;20058;-67
2023/10/29 02:30:36;;;;;;;1.95;0.50;;;31.90;29.00;;;;;;4973470;28;20113;-66
2023/10/29 02:33:04;;;;;;;1.13;0.30;;;31.80;29.40;;;;;;4973191;28;20515;-66
2023/10/29 02:35:31;;;;;;;7.25;0.85;;;32.00;29.00;;;;;;4973345;28;20043;-66
2023/10/29 02:37:59;;;;;;;2.55;0.60;;;31.50;28.80;;;;;;4973125;28;20113;-67
2023/10/29 02:40:26;;;;;;;1.17;0.35;;;30.90;28.60;;;;;;4968374;28;20028;-66
2023/10/29 02:42:53;;;;;;;3.05;0.57;;;30.90;29.50;;;;;;4952517;29;20371;-67
2023/10/29 02:45:20;;;;;;;6.95;0.63;;;31.30;29.50;;;;;;4953932;29;20019;-67
2023/10/29 02:47:49;;;;;;;2.42;0.63;;;31.70;29.50;;;;;;4953904;29;20028;-68
2023/10/29 02:50:16;;;;;;;8.23;0.70;;;31.00;29.30;;;;;;4953708;29;20487;-68
2023/10/29 02:52:43;;;;;;;4.60;0.82;;;31.20;29.40;;;;;;4953970;29;20098;-67
2023/10/29 02:55:11;;;;;;;2.53;0.57;;;30.90;29.20;;;;;;4954070;29;20452;-67
2023/10/29 02:57:38;;;;;;;1.52;0.70;;;31.10;29.30;;;;;;4954292;28;20031;-67
2023/10/29 03:00:06;;;;;;;2.60;0.77;;;31.70;29.20;;;;;;4954092;29;20034;-68
2023/10/29 03:02:34;;;;;;;1.33;0.60;;;32.10;29.90;;;;;;4936261;29;20067;-68
2023/10/29 03:05:01;;;;;;;4.32;1.05;;;32.10;29.00;;;;;;4934466;29;20384;-68
2023/10/29 03:07:30;;;;;;;3.83;0.60;;;32.60;29.40;;;;;;4934718;29;20016;-68
2023/10/29 03:09:57;;;;;;;1.10;0.50;;;32.60;28.60;;;;;;4934686;29;20114;-68
2023/10/29 03:12:25;;;;;;;2.28;0.47;;;32.30;28.10;;;;;;4934766;29;20030;-67
2023/10/29 03:14:52;;;;;;;3.35;0.52;;;32.30;28.50;;;;;;4944276;28;20078;-67
2023/10/29 03:17:19;;;;;;;1.58;0.43;;;31.80;28.30;;;;;;4953567;29;20023;-67
2023/10/29 03:19:47;;;;;;;5.18;0.80;;;31.50;29.00;;;;;;4953811;29;20034;-67
2023/10/29 03:22:14;;;;;;;4.13;0.95;;;31.50;28.80;;;;;;4953244;28;20043;-67
2023/10/29 03:24:41;;;;;;;3.40;0.50;;;31.90;29.30;;;;;;4954007;29;20098;-67
2023/10/29 03:27:09;;;;;;;2.05;1.05;;;32.50;29.90;;;;;;4953599;28;20063;-68
2023/10/29 03:29:36;;;;;;;2.17;0.60;;;33.00;29.30;;;;;;4953509;29;20023;-68
2023/10/29 03:32:03;;;;;;;1.63;0.50;;;33.30;29.70;;;;;;4963299;28;20037;-68
2023/10/29 03:34:34;;;;;;;2.47;0.68;;;33.60;30.00;;;;;;4960294;28;20411;-68
2023/10/29 03:37:01;;;;;;;3.03;0.50;;;33.70;27.90;;;;;;4957298;29;20368;-67
2023/10/29 03:39:31;;;;;;;2.22;0.70;;;33.20;27.80;;;;;;4957157;29;20033;-67
2023/10/29 03:41:58;;;;;;;2.15;0.60;;;32.60;28.00;;;;;;4957003;29;20020;-67
2023/10/29 03:44:26;;;;;;;1.55;0.50;;;32.60;29.20;;;;;;4956732;28;20029;-68
2023/10/29 03:46:53;;;;;;;3.08;0.50;;;32.80;28.50;;;;;;4957074;29;20110;-67
2023/10/29 03:49:21;;;;;;;1.30;0.43;;;32.70;28.70;;;;;;4957528;28;20472;-68
2023/10/29 03:51:48;;;;;;;5.28;0.80;;;32.60;28.30;;;;;;4957216;29;20031;-67
2023/10/29 03:54:16;;;;;;;3.80;0.60;;;32.60;28.40;;;;;;4939757;29;20027;-68
2023/10/29 03:56:43;;;;;;;3.70;1.05;;;32.30;28.40;;;;;;4956858;29;20102;-68
2023/10/29 03:59:10;;;;;;;1.80;0.57;;;31.90;28.20;;;;;;4956502;29;20473;-67
2023/10/29 04:01:38;;;;;;;2.25;0.50;;;31.80;28.60;;;;;;4956898;29;20106;-68
2023/10/29 04:04:05;;;;;;;2.83;1.00;;;31.80;28.90;;;;;;4956737;28;20536;-68
2023/10/29 04:06:33;;;;;;;3.17;0.55;;;31.60;28.70;;;;;;4970122;28;20043;-68
2023/10/29 04:09:00;;;;;;;1.55;0.63;;;31.70;28.70;;;;;;4976002;28;20489;-68
2023/10/29 04:11:27;;;;;;;3.90;0.88;;;31.40;28.50;;;;;;4975768;28;20027;-68
2023/10/29 04:13:54;;;;;;;4.45;1.02;;;31.30;28.80;;;;;;4976043;28;20031;-68
2023/10/29 04:16:22;;;;;;;3.20;0.90;;;31.50;28.40;;;;;;4975883;28;20034;-68
2023/10/29 04:18:49;;;;;;;2.20;0.50;;;31.40;29.50;;;;;;4975740;28;20053;-68
2023/10/29 04:21:16;;;;;;;2.88;0.60;;;31.80;28.80;;;;;;4975899;28;20177;-68
2023/10/29 04:23:44;;;;;;;3.25;0.60;;;32.00;29.10;;;;;;4974758;28;20019;-67
2023/10/29 04:26:11;;;;;;;2.45;0.40;;;32.10;28.00;;;;;;4975466;28;20085;-68
2023/10/29 04:28:39;;;;;;;4.57;0.60;;;31.90;28.50;;;;;;4975747;28;20030;-68
2023/10/29 04:31:06;;;;;;;1.73;0.60;;;31.70;28.40;;;;;;4970921;28;20468;-68
2023/10/29 04:33:34;;;;;;;3.70;0.60;;;31.80;28.50;;;;;;4956265;29;20546;-68
2023/10/29 04:36:01;;;;;;;1.17;0.55;;;31.80;28.30;;;;;;4956180;28;20023;-67
2023/10/29 04:38:28;;;;;;;4.53;1.00;;;31.50;28.40;;;;;;4955895;28;20095;-68
2023/10/29 04:40:56;;;;;;;6.13;0.70;;;31.40;29.00;;;;;;4956329;28;20023;-67
2023/10/29 04:43:23;;;;;;;1.95;0.50;;;31.70;29.00;;;;;;4956050;29;20412;-67
2023/10/29 04:45:51;;;;;;;1.77;0.50;;;31.90;29.60;;;;;;4955854;28;20117;-67
2023/10/29 04:48:18;;;;;;;1.98;0.60;;;32.20;29.20;;;;;;4955816;29;20119;-68
2023/10/29 04:50:45;;;;;;;2.33;0.50;;;32.30;28.30;;;;;;4955834;29;20023;-69
2023/10/29 04:53:13;;;;;;;3.03;0.70;;;32.30;29.00;;;;;;4955597;29;20019;-68
2023/10/29 04:55:40;;;;;;;3.38;0.77;;;32.30;29.10;;;;;;4955853;28;20019;-67
2023/10/29 04:58:07;;;;;;;1.98;0.60;;;32.10;28.10;;;;;;4973534;28;20077;-67
2023/10/29 05:00:34;;;;;;;4.22;1.30;;;32.10;28.40;;;;;;4975018;28;20019;-67
2023/10/29 05:03:02;;;;;;;3.20;0.90;;;31.80;27.90;;;;;;4974906;28;20018;-67
2023/10/29 05:05:30;;;;;;;3.92;0.65;;;31.30;28.30;;;;;;4974759;28;20050;-67
2023/10/29 05:07:57;;;;;;;1.42;0.63;;;31.00;28.20;;;;;;4974724;28;20026;-68
2023/10/29 05:10:28;;;;;;;3.22;0.77;;;30.90;28.60;;;;;;4974662;28;20057;-68
2023/10/29 05:12:56;;;;;;;2.95;1.00;;;31.00;28.50;;;;;;4973621;28;20539;-68
2023/10/29 05:15:24;;;;;;;4.00;0.70;;;30.80;28.60;;;;;;4953924;29;20382;-68
2023/10/29 05:17:52;;;;;;;4.25;0.80;;;30.80;29.60;;;;;;4955238;29;20046;-68
2023/10/29 05:20:19;;;;;;;3.90;0.82;;;30.90;29.10;;;;;;4955114;29;20290;-68
2023/10/29 05:22:46;;;;;;;1.75;0.70;;;31.10;29.00;;;;;;4954021;29;20030;-68
2023/10/29 05:25:14;;;;;;;4.45;0.90;;;31.30;29.40;;;;;;4955268;29;20023;-68
2023/10/29 05:27:53;;;;;;;3.20;0.60;;;31.20;29.90;;;;;;4955184;29;20023;-68
2023/10/29 05:30:21;;;;;;;2.08;0.52;;;31.20;29.50;;;;;;4948620;28;20023;-68
2023/10/29 05:32:49;;;;;;;5.97;0.90;;;31.30;28.30;;;;;;4971928;28;20576;-68
2023/10/29 05:35:17;;;;;;;2.58;0.80;;;31.00;28.60;;;;;;4955122;28;20023;-68
2023/10/29 05:37:44;;;;;;;1.52;0.60;;;31.20;28.70;;;;;;4954849;28;20074;-68
2023/10/29 05:40:12;;;;;;;3.15;0.80;;;31.10;29.60;;;;;;4954901;28;20023;-68
2023/10/29 05:42:39;;;;;;;2.70;0.60;;;31.40;28.70;;;;;;4954758;28;20219;-68
2023/10/29 05:45:07;;;;;;;2.13;0.63;;;31.30;28.50;;;;;;4954646;28;20078;-68
2023/10/29 05:47:34;;;;;;;2.53;0.60;;;31.20;28.60;;;;;;4954986;28;20421;-68
2023/10/29 05:50:04;;;;;;;3.65;0.50;;;31.20;28.40;;;;;;4954802;29;20023;-68
2023/10/29 05:52:32;;;;;;;1.00;0.50;;;31.00;28.90;;;;;;4954576;29;20023;-68
2023/10/29 05:55:02;;;;;;;1.92;0.70;;;31.10;29.50;;;;;;4954540;28;20110;-68
2023/10/29 05:57:30;;;;;;;8.25;1.25;;;31.20;31.20;;;;;;4954011;28;20027;-68
2023/10/29 05:59:57;;;;;;;2.75;0.60;;;31.10;32.60;;;;;;4954274;29;20039;-68
2023/10/29 06:02:25;;;;;;;3.63;1.23;;;30.60;28.90;;;;;;4954556;29;20028;-68
2023/10/29 06:04:52;;;;;;;6.03;2.42;;;30.50;28.70;;;;;;4962587;28;20357;-68
2023/10/29 06:07:19;;;;;;;5.15;2.22;;;30.30;29.00;;;;;;4973623;28;20042;-68
2023/10/29 06:09:48;;;;;;;15.18;11.20;;;30.10;33.30;;;;;;4973699;28;20022;-67
2023/10/29 06:12:15;;;;;;;6.25;2.63;;;29.80;34.50;;;;;;4973387;28;20022;-67
2023/10/29 06:14:45;;;;;;;5.15;3.63;;;29.60;35.10;;;;;;4973724;28;20070;-67
2023/10/29 06:17:12;;;;;;;11.63;6.10;;;29.30;36.20;;;;;;4973537;28;20034;-67
2023/10/29 06:19:40;;;;;;;3.33;1.42;;;29.10;36.50;;;;;;4973458;28;20518;-68
2023/10/29 06:22:08;;;;;;;5.43;1.35;;;29.10;37.30;;;;;;4972589;28;20023;-67
2023/10/29 06:24:35;;;;;;;6.15;0.77;;;28.80;37.00;;;;;;4965971;28;20042;-67
2023/10/29 06:27:03;;;;;;;5.65;1.65;;;28.60;37.90;;;;;;4953993;29;20026;-67
2023/10/29 06:29:31;;;;;;;4.80;0.98;;;28.50;38.30;;;;;;4954090;29;20019;-68
2023/10/29 06:31:58;;;;;;;3.75;0.70;;;28.50;38.80;;;;;;4954066;29;20431;-68
2023/10/29 06:34:25;;;;;;;3.10;0.88;;;28.20;38.60;;;;;;4953874;28;20039;-68
2023/10/29 06:36:52;;;;;;;3.75;1.00;;;28.00;39.00;;;;;;4954362;29;20020;-68
2023/10/29 06:39:20;;;;;;;4.03;0.85;;;28.00;38.20;;;;;;4954171;28;20046;-68
2023/10/29 06:41:47;;;;;;;2.42;0.80;;;27.90;38.90;;;;;;4953780;29;20029;-67
2023/10/29 06:44:14;;;;;;;3.22;0.82;;;27.90;39.50;;;;;;4953957;29;20019;-68
2023/10/29 06:46:42;;;;;;;5.68;0.70;;;27.90;39.20;;;;;;4954015;29;20062;-67
2023/10/29 06:49:09;;;;;;;2.38;0.65;;;27.70;39.00;;;;;;4953914;29;20408;-68
2023/10/29 06:51:36;;;;;;;3.40;0.80;;;27.60;40.30;;;;;;4953905;28;20020;-68
2023/10/29 06:54:05;;;;;;;6.85;0.88;;;27.60;41.10;;;;;;4953607;29;20030;-67
2023/10/29 06:56:32;;;;;;;7.15;0.70;;;27.70;41.30;;;;;;4954267;28;20102;-67
2023/10/29 06:59:00;;;;;;;4.03;0.63;;;27.60;41.70;;;;;;4953763;28;20039;-67
2023/10/29 07:01:27;;;;;;;3.53;1.13;;;27.40;41.20;;;;;;4952347;29;20024;-67
2023/10/29 07:03:54;;;;;;;6.43;1.02;;;27.20;42.00;;;;;;4953624;29;20058;-67
2023/10/29 07:06:22;;;;;;;3.78;0.70;;;27.20;42.20;;;;;;4953446;29;20026;-67
2023/10/29 07:08:49;;;;;;;3.45;0.93;;;27.20;42.40;;;;;;4955627;28;20030;-67
2023/10/29 07:11:18;;;;;;;8.68;1.23;;;27.20;42.00;;;;;;4957467;29;20026;-67
2023/10/29 07:13:45;;;;;;;5.85;1.40;;;27.10;42.50;;;;;;4957899;28;20484;-67
2023/10/29 07:16:16;;;;;;;3.58;1.05;;;27.00;42.90;;;;;;4957290;29;20109;-67
2023/10/29 07:18:44;;;;;;;4.53;1.00;;;27.00;42.70;;;;;;4957069;29;20027;-67
2023/10/29 07:21:11;;;;;;;2.95;0.70;;;26.90;43.00;;;;;;4957093;29;20495;-67
2023/10/29 07:23:39;;;;;;;5.00;0.90;;;26.70;43.60;;;;;;4957401;29;20209;-67
2023/10/29 07:26:06;;;;;;;5.70;0.80;;;26.60;43.80;;;;;;4957337;29;20453;-67
2023/10/29 07:28:34;;;;;;;6.32;1.27;;;26.40;44.20;;;;;;4957150;29;20031;-67
2023/10/29 07:31:03;;;;;;;4.30;1.30;;;26.30;45.00;;;;;;4974233;28;20033;-67
2023/10/29 07:33:30;;;;;;;8.43;1.08;;;26.00;45.30;;;;;;4975961;28;20102;-67
2023/10/29 07:35:57;;;;;;;5.40;0.70;;;25.80;45.70;;;;;;4976401;28;20047;-68
2023/10/29 07:38:26;;;;;;;3.70;0.80;;;25.60;46.40;;;;;;4976008;28;20379;-67
2023/10/29 07:40:53;;;;;;;5.63;1.10;;;25.60;46.80;;;;;;4976174;28;20034;-67
2023/10/29 07:43:20;;;;;;;6.03;1.42;;;25.50;46.90;;;;;;4976011;28;20083;-65
2023/10/29 07:45:51;;;;;;;4.05;0.93;;;25.40;47.00;;;;;;4974677;28;20039;-68
2023/10/29 07:48:21;;;;;;;4.78;1.02;;;25.30;47.60;;;;;;4937468;29;20435;-67
2023/10/29 07:50:52;;;;;;;4.75;0.82;;;25.20;47.80;;;;;;4937678;29;20461;-67
2023/10/29 07:53:19;;;;;;;2.65;0.90;;;25.10;48.00;;;;;;4937692;29;20272;-68
2023/10/29 07:55:47;;;;;;;3.80;1.13;;;24.90;48.50;;;;;;4937583;29;20015;-67
2023/10/29 07:58:14;;;;;;;4.50;1.00;;;24.80;48.70;;;;;;4937392;29;20071;-67
2023/10/29 08:00:41;;;;;;;3.92;0.90;;;24.60;49.40;;;;;;4937563;29;20023;-67
2023/10/29 08:03:09;;;;;;;2.83;0.77;;;24.40;49.90;;;;;;4941528;28;20065;-68
2023/10/29 08:05:36;;;;;;;7.25;1.25;;;24.40;50.20;;;;;;4956617;29;20046;-66
2023/10/29 08:08:05;;;;;;;6.03;1.08;;;24.30;50.60;;;;;;4956779;29;20063;-66
2023/10/29 08:10:33;;;;;;;5.72;1.10;;;24.30;50.60;;;;;;4956292;28;20110;-67
2023/10/29 08:13:03;;;;;;;7.47;1.20;;;24.30;50.60;;;;;;4956312;29;20059;-67
2023/10/29 08:15:31;;;;;;;5.40;0.95;;;24.30;51.00;;;;;;4956497;29;20101;-66
2023/10/29 08:17:58;;;;;;;6.85;0.90;;;24.10;51.40;;;;;;4956417;28;20019;-66
2023/10/29 08:20:25;;;;;;;4.90;1.33;;;24.00;52.00;;;;;;4956367;28;20024;-67
2023/10/29 08:22:52;;;;;;;5.20;1.20;;;23.90;52.30;;;;;;4955194;29;20035;-67
2023/10/29 08:25:20;;;;;;;7.63;1.70;;;23.70;52.70;;;;;;4956190;29;20024;-67
2023/10/29 08:27:47;;;;;;;3.55;1.23;;;23.70;52.80;;;;;;4956005;29;20102;-67
2023/10/29 08:30:14;;;;;;;3.00;0.77;;;23.70;52.50;;;;;;4956250;29;20286;-68
2023/10/29 08:32:42;;;;;;;5.72;1.08;;;23.70;52.30;;;;;;4956869;28;20101;-65
2023/10/29 08:35:09;;;;;;;7.43;1.25;;;23.60;52.50;;;;;;4975409;28;20073;-68
2023/10/29 08:37:37;;;;;;;5.72;1.15;;;23.50;52.40;;;;;;4968733;28;20102;-68
2023/10/29 08:40:05;;;;;;;4.35;0.77;;;23.30;52.30;;;;;;4956383;29;20031;-67
2023/10/29 08:42:33;;;;;;;7.97;1.02;;;23.20;52.80;;;;;;4955800;29;20034;-67
2023/10/29 08:45:01;;;;;;;4.05;1.23;;;23.20;52.90;;;;;;4954795;29;20387;-67
2023/10/29 08:47:28;;;;;;;5.28;1.00;;;23.10;53.20;;;;;;4955990;29;20019;-66
2023/10/29 08:49:56;;;;;;;5.70;1.45;;;23.10;53.60;;;;;;4956080;29;20027;-66
2023/10/29 08:52:23;;;;;;;4.38;1.15;;;23.10;53.90;;;;;;4955831;29;20027;-66
2023/10/29 08:54:51;;;;;;;6.88;1.48;;;22.90;54.40;;;;;;4956240;28;20098;-66
2023/10/29 08:57:19;;;;;;;6.32;1.20;;;22.90;54.70;;;;;;4955946;29;20019;-67
2023/10/29 08:59:47;;;;;;;4.60;1.52;;;22.90;55.30;;;;;;4955995;28;20039;-67
2023/10/29 09:02:15;;;;;;;5.32;1.23;;;22.90;55.60;;;;;;4955843;29;20046;-68
2023/10/29 09:04:42;;;;;;;6.30;1.20;;;22.80;56.00;;;;;;4955845;28;20027;-68
2023/10/29 09:07:09;;;;;;;5.63;1.00;;;22.70;56.50;;;;;;4955640;29;20497;-68
2023/10/29 09:09:37;;;;;;;9.25;1.00;;;22.70;56.70;;;;;;4955575;29;20074;-67
2023/10/29 09:12:05;;;;;;;7.47;1.30;;;22.60;57.00;;;;;;4956171;28;20023;-67
2023/10/29 09:14:32;;;;;;;6.25;1.08;;;22.60;57.40;;;;;;4956080;29;20054;-67
2023/10/29 09:16:59;;;;;;;3.80;0.70;;;22.50;57.70;;;;;;4955565;28;20110;-67
2023/10/29 09:19:27;;;;;;;2.42;0.50;;;22.40;58.10;;;;;;4955387;29;20118;-67
2023/10/29 09:21:55;;;;;;;6.00;1.42;;;22.40;58.30;;;;;;4955276;29;20027;-68
2023/10/29 09:24:23;;;;;;;4.43;0.70;;;22.30;58.80;;;;;;4955820;29;20023;-67
2023/10/29 09:26:50;;;;;;;3.65;1.20;;;22.20;59.50;;;;;;4955138;29;20031;-67
2023/10/29 09:29:17;;;;;;;7.65;1.85;;;22.20;59.70;;;;;;4966850;28;20053;-67
2023/10/29 09:31:45;;;;;;;8.95;1.65;;;22.10;60.10;;;;;;4973813;28;20015;-67
2023/10/29 09:34:12;;;;;;;8.60;1.92;;;22.00;60.70;;;;;;4974212;28;20392;-67
2023/10/29 09:36:39;;;;;;;5.95;1.65;;;21.80;61.10;;;;;;4974273;28;20570;-67
2023/10/29 09:39:08;;;;;;;4.35;1.20;;;21.70;61.80;;;;;;4974469;28;20062;-67
2023/10/29 09:41:38;;;;;;;8.55;1.42;;;21.70;62.20;;;;;;4974413;28;20065;-67
2023/10/29 09:44:10;;;;;;;6.45;1.30;;;21.60;62.90;;;;;;4974412;28;20015;-67
2023/10/29 09:46:38;;;;;;;10.43;2.13;;;21.50;63.30;;;;;;4959713;28;20030;-67
2023/10/29 09:49:06;;;;;;;6.65;1.13;;;21.60;63.70;;;;;;4954892;29;20034;-67
2023/10/29 09:51:34;;;;;;;7.32;1.50;;;21.60;63.70;;;;;;4955034;29;20027;-67
2023/10/29 09:54:03;;;;;;;2.97;0.90;;;21.60;64.30;;;;;;4954967;29;20023;-67
2023/10/29 09:56:33;;;;;;;6.63;1.48;;;21.40;64.70;;;;;;4953433;29;20455;-67
2023/10/29 09:59:04;;;;;;;9.93;2.15;;;21.40;65.50;;;;;;4955134;29;20042;-67
2023/10/29 10:01:32;;;;;;;3.65;1.00;;;21.50;65.30;;;;;;4954553;29;20026;-68
2023/10/29 10:03:59;;;;;;;8.32;1.20;;;21.40;65.70;;;;;;4955301;28;20023;-67
2023/10/29 10:06:27;;;;;;;7.20;1.40;;;21.30;66.20;;;;;;4954671;29;20019;-67
2023/10/29 10:09:00;;;;;;;6.78;1.63;;;21.20;66.80;;;;;;4954577;29;20030;-66
2023/10/29 10:11:28;;;;;;;10.50;1.55;;;21.10;66.60;;;;;;4954493;29;20457;-67
2023/10/29 10:13:55;;;;;;;5.05;1.00;;;21.10;66.80;;;;;;4954349;29;20024;-67
2023/10/29 10:16:23;;;;;;;5.88;1.45;;;21.00;67.20;;;;;;4954624;29;20421;-66
2023/10/29 10:18:58;;;;;;;11.85;1.30;;;21.00;67.70;;;;;;4954813;28;20129;-67
2023/10/29 10:21:39;;;;;;;9.82;1.20;;;20.90;68.20;;;;;;4954374;29;20449;-67
2023/10/29 10:24:07;;;;;;;9.15;1.50;;;20.70;69.00;;;;;;4954364;29;20469;-68
2023/10/29 10:26:37;;;;;;;8.38;1.48;;;20.70;69.70;;;;;;4954135;29;20067;-67
2023/10/29 10:29:07;;;;;;;6.07;1.48;;;20.60;70.40;;;;;;4937388;29;20050;-67
2023/10/29 10:31:35;;;;;;;9.85;1.50;;;20.50;70.90;;;;;;4954168;29;20019;-66
2023/10/29 10:34:13;;;;;;;7.30;1.55;;;20.50;71.30;;;;;;4965798;28;20055;-66
2023/10/29 10:36:46;;;;;;;7.80;2.03;;;20.50;71.60;;;;;;4964644;28;20034;-66
2023/10/29 10:39:13;;;;;;;8.55;1.85;;;20.40;72.00;;;;;;4954063;29;20035;-66
2023/10/29 10:41:46;;;;;;;12.32;1.85;;;20.40;72.50;;;;;;4954187;28;20035;-67
2023/10/29 10:44:15;;;;;;;13.73;2.35;;;20.20;73.10;;;;;;4953985;28;20369;-67
2023/10/29 10:46:50;;;;;;;14.32;2.33;;;20.20;73.80;;;;;;4954031;29;20024;-65
2023/10/29 10:49:19;;;;;;;18.40;2.60;;;20.30;73.90;;;;;;4953920;29;20026;-66
2023/10/29 10:51:49;;;;;;;16.85;1.85;;;20.30;74.00;;;;;;4954187;29;20519;-66
2023/10/29 10:54:19;;;;;;;9.38;2.00;;;20.40;73.90;;;;;;4954542;28;20023;-66
2023/10/29 10:56:48;;;;;;;8.60;1.30;;;20.30;74.20;;;;;;4954047;29;20023;-67
2023/10/29 10:59:16;;;;;;;8.30;1.25;;;20.10;74.60;;;;;;4953941;29;20031;-67
2023/10/29 11:01:44;;;;;;;14.63;1.52;;;20.00;75.40;;;;;;4953980;28;20034;-67
2023/10/29 11:04:12;;;;;;;7.25;1.23;;;20.00;75.80;;;;;;4953730;29;20027;-67
2023/10/29 11:06:40;;;;;;;8.50;1.55;;;20.00;76.20;;;;;;4954116;29;20123;-67
2023/10/29 11:09:13;;;;;;;12.90;1.40;;;19.80;76.40;;;;;;4954048;29;20082;-67
2023/10/29 11:11:51;;;;;;;9.35;1.40;;;19.70;77.30;;;;;;4954396;28;20027;-67
2023/10/29 11:14:19;;;;;;;4.07;1.20;;;19.70;77.50;;;;;;4954036;29;20030;-68
2023/10/29 11:16:55;;;;;;;13.15;1.73;;;19.60;78.20;;;;;;4954015;29;20357;-66
2023/10/29 11:19:47;;;;;;;9.30;1.60;;;19.50;78.70;;;;;;4953787;29;20035;-67
2023/10/29 11:22:15;;;;;;;5.47;1.40;;;19.60;78.80;;;;;;4953864;29;20020;-67
2023/10/29 11:24:42;;;;;;;10.10;1.38;;;19.50;78.70;;;;;;4953925;28;20027;-66
2023/10/29 11:27:47;;;;;;;11.02;1.92;;;19.40;79.40;;;;;;4954844;28;20038;-66
2023/10/29 11:30:17;;;;;;;11.13;1.30;;;19.50;79.90;;;;;;4973075;28;20449;-66
2023/10/29 11:32:46;;;;;;;8.77;1.38;;;19.60;79.40;;;;;;4972800;28;20042;-68
2023/10/29 11:35:16;;;;;;;5.28;1.20;;;19.60;79.50;;;;;;4972801;28;20023;-67
2023/10/29 11:37:44;;;;;;;8.25;1.30;;;19.60;79.60;;;;;;4973359;28;20037;-66
2023/10/29 11:40:36;;;;;;;5.50;1.42;;;19.60;79.60;;;;;;4973003;28;20411;-67
2023/10/29 11:43:16;;;;;;;11.57;1.50;;;19.50;80.00;;;;;;4972897;28;20062;-67
2023/10/29 11:46:05;;;;;;;9.75;1.83;;;19.50;80.40;;;;;;4957386;28;20050;-67
2023/10/29 11:48:33;;;;;;;15.27;1.50;;;19.40;80.40;;;;;;4953815;29;20027;-67
2023/10/29 11:51:08;;;;;;;13.65;1.38;;;19.30;81.30;;;;;;4953591;29;20034;-67
2023/10/29 11:53:39;;;;;;;21.35;1.98;;;19.30;81.40;;;;;;4953566;28;20027;-67
2023/10/29 11:56:09;;;;;;;13.52;1.98;;;19.20;81.30;;;;;;4956844;29;20023;-67
2023/10/29 11:58:37;;;;;;;9.57;1.65;;;19.20;82.00;;;;;;4956810;29;20452;-67
2023/10/29 12:01:06;;;;;;;14.25;1.85;;;19.10;82.10;;;;;;4957259;28;20403;-67
2023/10/29 12:03:33;;;;;;;16.67;2.00;;;19.10;82.10;;;;;;4956914;29;20047;-67
2023/10/29 12:06:01;;;;;;;11.75;1.50;;;19.00;82.40;;;;;;4956858;29;20161;-66
2023/10/29 12:08:31;;;;;;;9.07;1.80;;;19.00;82.60;;;;;;4956487;28;20026;-67
2023/10/29 12:10:58;;;;;;;8.23;1.30;;;18.90;83.20;;;;;;4956910;29;20215;-66
2023/10/29 12:13:26;;;;;;;14.60;1.90;;;18.90;83.00;;;;;;4956769;29;20356;-66
2023/10/29 12:15:58;;;;;;;15.32;1.77;;;19.00;83.30;;;;;;4956710;28;20046;-66
2023/10/29 12:18:26;;;;;;;13.98;1.83;;;18.90;83.30;;;;;;4961129;28;20034;-66
2023/10/29 12:21:12;;;;;;;7.50;1.73;;;18.70;83.70;;;;;;4976207;28;20106;-66
2023/10/29 12:23:39;;;;;;;7.85;1.40;;;18.60;84.70;;;;;;4975939;28;20031;-66
2023/10/29 12:26:10;;;;;;;9.70;1.42;;;18.40;84.70;;;;;;4974784;28;20030;-66
2023/10/29 12:28:38;;;;;;;6.82;1.40;;;18.30;85.10;;;;;;4957050;28;20512;-66
2023/10/29 12:31:06;;;;;;;7.07;1.17;;;18.20;85.90;;;;;;4956319;29;20030;-66
2023/10/29 12:33:34;;;;;;;12.40;1.58;;;18.10;86.60;;;;;;4962528;28;20057;-66
2023/10/29 12:36:08;;;;;;;7.60;0.95;;;18.20;86.80;;;;;;4965528;28;20054;-66
2023/10/29 12:38:39;;;;;;;5.63;1.10;;;18.20;87.00;;;;;;4956306;29;20469;-66
2023/10/29 12:41:14;;;;;;;6.85;1.85;;;18.20;86.90;;;;;;4956300;29;20026;-66
2023/10/29 12:43:42;;;;;;;3.17;1.00;;;18.10;87.20;;;;;;4956023;29;20019;-65
2023/10/29 12:46:14;;;;;;;8.45;1.42;;;18.00;87.00;;;;;;4955838;29;20507;-66
2023/10/29 12:48:57;;;;;;;6.10;1.20;;;18.00;87.30;;;;;;4954785;29;20022;-66
2023/10/29 12:51:26;;;;;;;7.18;1.48;;;17.90;87.30;;;;;;4956338;28;20027;-66